sensor_id;sensor_type;location;lat;lon;timestamp;temperature;humidity
67194;DHT22;54121;53.508;49.422;2022-10-26T00:00:47;8.70;53.40
67194;DHT22;54121;53.508;49.422;2022-10-26T00:03:14;8.70;53.20
67194;DHT22;54121;53.508;49.422;2022-10-26T00:05:41;8.60;53.40
67194;DHT22;54121;53.508;49.422;2022-10-26T00:08:08;8.50;53.70
67194;DHT22;54121;53.508;49.422;2022-10-26T00:10:36;8.40;53.60
67194;DHT22;54121;53.508;49.422;2022-10-26T00:13:04;8.50;53.80
67194;DHT22;54121;53.508;49.422;2022-10-26T00:15:31;8.70;53.40
67194;DHT22;54121;53.508;49.422;2022-10-26T00:17:58;8.50;53.60
67194;DHT22;54121;53.508;49.422;2022-10-26T00:20:24;8.60;53.70
67194;DHT22;54121;53.508;49.422;2022-10-26T00:22:51;8.60;53.60
67194;DHT22;54121;53.508;49.422;2022-10-26T00:25:17;8.70;53.50
67194;DHT22;54121;53.508;49.422;2022-10-26T00:27:44;8.70;53.40
67194;DHT22;54121;53.508;49.422;2022-10-26T00:30:10;8.60;53.40
67194;DHT22;54121;53.508;49.422;2022-10-26T00:32:37;8.60;53.40
67194;DHT22;54121;53.508;49.422;2022-10-26T00:35:04;8.60;53.50
67194;DHT22;54121;53.508;49.422;2022-10-26T00:37:30;8.60;53.60
67194;DHT22;54121;53.508;49.422;2022-10-26T00:39:57;8.60;53.70
67194;DHT22;54121;53.508;49.422;2022-10-26T00:42:23;8.40;54.30
67194;DHT22;54121;53.508;49.422;2022-10-26T00:45:04;8.50;54.10
67194;DHT22;54121;53.508;49.422;2022-10-26T00:47:36;8.50;54.40
67194;DHT22;54121;53.508;49.422;2022-10-26T00:50:28;8.50;54.30
67194;DHT22;54121;53.508;49.422;2022-10-26T00:52:54;8.50;54.50
67194;DHT22;54121;53.508;49.422;2022-10-26T00:55:26;8.50;54.20
67194;DHT22;54121;53.508;49.422;2022-10-26T00:57:54;8.50;54.30
67194;DHT22;54121;53.508;49.422;2022-10-26T01:00:20;8.50;54.40
67194;DHT22;54121;53.508;49.422;2022-10-26T01:02:48;8.40;54.30
67194;DHT22;54121;53.508;49.422;2022-10-26T01:05:17;8.10;54.40
67194;DHT22;54121;53.508;49.422;2022-10-26T01:07:44;8.10;55.40
67194;DHT22;54121;53.508;49.422;2022-10-26T01:10:13;8.30;54.90
67194;DHT22;54121;53.508;49.422;2022-10-26T01:12:40;8.30;54.90
67194;DHT22;54121;53.508;49.422;2022-10-26T01:15:07;8.20;54.80
67194;DHT22;54121;53.508;49.422;2022-10-26T01:21:08;8.40;54.10
67194;DHT22;54121;53.508;49.422;2022-10-26T01:27:01;8.30;54.40
67194;DHT22;54121;53.508;49.422;2022-10-26T01:29:53;8.20;54.70
67194;DHT22;54121;53.508;49.422;2022-10-26T01:32:45;8.20;54.60
67194;DHT22;54121;53.508;49.422;2022-10-26T01:37:57;8.20;54.40
67194;DHT22;54121;53.508;49.422;2022-10-26T01:40:45;8.40;54.40
67194;DHT22;54121;53.508;49.422;2022-10-26T01:43:13;8.40;54.10
67194;DHT22;54121;53.508;49.422;2022-10-26T01:45:43;8.40;54.20
67194;DHT22;54121;53.508;49.422;2022-10-26T01:48:13;8.60;54.20
67194;DHT22;54121;53.508;49.422;2022-10-26T01:50:41;8.60;55.00
67194;DHT22;54121;53.508;49.422;2022-10-26T01:53:14;8.50;53.70
67194;DHT22;54121;53.508;49.422;2022-10-26T01:55:50;8.50;53.70
67194;DHT22;54121;53.508;49.422;2022-10-26T02:09:27;8.20;54.50
67194;DHT22;54121;53.508;49.422;2022-10-26T02:11:55;8.10;54.60
67194;DHT22;54121;53.508;49.422;2022-10-26T02:20:04;8.10;54.80
67194;DHT22;54121;53.508;49.422;2022-10-26T02:22:40;8.00;54.90
67194;DHT22;54121;53.508;49.422;2022-10-26T02:25:49;8.00;54.70
67194;DHT22;54121;53.508;49.422;2022-10-26T02:28:12;7.90;56.00
67194;DHT22;54121;53.508;49.422;2022-10-26T02:30:39;8.00;54.90
67194;DHT22;54121;53.508;49.422;2022-10-26T02:33:10;7.90;54.40
67194;DHT22;54121;53.508;49.422;2022-10-26T02:35:38;7.90;54.80
67194;DHT22;54121;53.508;49.422;2022-10-26T02:38:08;7.90;54.80
67194;DHT22;54121;53.508;49.422;2022-10-26T02:40:37;7.90;54.80
67194;DHT22;54121;53.508;49.422;2022-10-26T02:43:07;7.90;55.00
67194;DHT22;54121;53.508;49.422;2022-10-26T02:45:45;7.90;54.60
67194;DHT22;54121;53.508;49.422;2022-10-26T02:48:13;7.70;55.20
67194;DHT22;54121;53.508;49.422;2022-10-26T02:57:36;7.90;54.70
67194;DHT22;54121;53.508;49.422;2022-10-26T02:59:34;7.80;54.90
67194;DHT22;54121;53.508;49.422;2022-10-26T03:02:03;7.70;55.60
67194;DHT22;54121;53.508;49.422;2022-10-26T03:04:31;7.90;55.20
67194;DHT22;54121;53.508;49.422;2022-10-26T03:06:58;7.80;54.50
67194;DHT22;54121;53.508;49.422;2022-10-26T03:09:25;7.60;55.20
67194;DHT22;54121;53.508;49.422;2022-10-26T03:11:52;7.70;55.60
67194;DHT22;54121;53.508;49.422;2022-10-26T03:14:19;7.60;55.70
67194;DHT22;54121;53.508;49.422;2022-10-26T03:16:46;7.60;55.70
67194;DHT22;54121;53.508;49.422;2022-10-26T03:19:12;7.40;56.10
67194;DHT22;54121;53.508;49.422;2022-10-26T03:21:39;7.50;56.10
67194;DHT22;54121;53.508;49.422;2022-10-26T03:24:08;7.50;56.10
67194;DHT22;54121;53.508;49.422;2022-10-26T03:26:34;7.70;55.60
67194;DHT22;54121;53.508;49.422;2022-10-26T03:29:01;7.80;55.30
67194;DHT22;54121;53.508;49.422;2022-10-26T03:31:28;7.70;55.20
67194;DHT22;54121;53.508;49.422;2022-10-26T03:33:55;7.70;55.00
67194;DHT22;54121;53.508;49.422;2022-10-26T03:36:21;7.70;55.10
67194;DHT22;54121;53.508;49.422;2022-10-26T03:38:48;7.60;55.50
67194;DHT22;54121;53.508;49.422;2022-10-26T03:41:14;7.70;55.40
67194;DHT22;54121;53.508;49.422;2022-10-26T03:43:41;7.60;55.00
67194;DHT22;54121;53.508;49.422;2022-10-26T03:46:07;7.50;55.80
67194;DHT22;54121;53.508;49.422;2022-10-26T03:48:34;7.60;55.80
67194;DHT22;54121;53.508;49.422;2022-10-26T03:51:00;7.70;55.70
67194;DHT22;54121;53.508;49.422;2022-10-26T03:53:27;7.60;55.70
67194;DHT22;54121;53.508;49.422;2022-10-26T03:55:53;7.50;55.70
67194;DHT22;54121;53.508;49.422;2022-10-26T03:58:20;7.50;56.10
67194;DHT22;54121;53.508;49.422;2022-10-26T04:00:47;7.60;55.80
67194;DHT22;54121;53.508;49.422;2022-10-26T04:03:13;7.60;55.80
67194;DHT22;54121;53.508;49.422;2022-10-26T04:05:40;7.70;55.90
67194;DHT22;54121;53.508;49.422;2022-10-26T04:08:07;7.70;55.60
67194;DHT22;54121;53.508;49.422;2022-10-26T04:10:34;7.90;55.20
67194;DHT22;54121;53.508;49.422;2022-10-26T04:13:01;8.30;54.30
67194;DHT22;54121;53.508;49.422;2022-10-26T04:15:27;8.40;53.90
67194;DHT22;54121;53.508;49.422;2022-10-26T04:17:55;8.50;53.10
67194;DHT22;54121;53.508;49.422;2022-10-26T04:20:23;8.70;52.40
67194;DHT22;54121;53.508;49.422;2022-10-26T04:22:56;8.60;52.50
67194;DHT22;54121;53.508;49.422;2022-10-26T04:25:23;8.60;52.20
67194;DHT22;54121;53.508;49.422;2022-10-26T04:27:50;8.90;51.90
67194;DHT22;54121;53.508;49.422;2022-10-26T04:30:16;9.10;51.10
67194;DHT22;54121;53.508;49.422;2022-10-26T04:32:43;9.00;51.50
67194;DHT22;54121;53.508;49.422;2022-10-26T04:35:09;9.00;50.40
67194;DHT22;54121;53.508;49.422;2022-10-26T04:37:36;9.10;50.50
67194;DHT22;54121;53.508;49.422;2022-10-26T04:40:03;9.10;50.20
67194;DHT22;54121;53.508;49.422;2022-10-26T04:42:29;9.20;50.30
67194;DHT22;54121;53.508;49.422;2022-10-26T04:45:02;9.30;49.70
67194;DHT22;54121;53.508;49.422;2022-10-26T04:47:29;9.30;49.30
67194;DHT22;54121;53.508;49.422;2022-10-26T04:49:56;9.40;48.90
67194;DHT22;54121;53.508;49.422;2022-10-26T04:52:22;9.50;48.10
67194;DHT22;54121;53.508;49.422;2022-10-26T04:54:49;9.70;47.30
67194;DHT22;54121;53.508;49.422;2022-10-26T04:57:15;9.70;47.00
67194;DHT22;54121;53.508;49.422;2022-10-26T04:59:42;9.80;47.30
67194;DHT22;54121;53.508;49.422;2022-10-26T05:02:11;9.50;46.30
67194;DHT22;54121;53.508;49.422;2022-10-26T05:04:37;9.70;45.50
67194;DHT22;54121;53.508;49.422;2022-10-26T05:07:04;9.80;45.10
67194;DHT22;54121;53.508;49.422;2022-10-26T05:09:31;9.90;45.20
67194;DHT22;54121;53.508;49.422;2022-10-26T05:11:57;10.10;45.00
67194;DHT22;54121;53.508;49.422;2022-10-26T05:14:24;10.10;43.10
67194;DHT22;54121;53.508;49.422;2022-10-26T05:16:50;10.20;42.50
67194;DHT22;54121;53.508;49.422;2022-10-26T05:19:17;10.10;41.50
67194;DHT22;54121;53.508;49.422;2022-10-26T05:21:43;10.10;42.10
67194;DHT22;54121;53.508;49.422;2022-10-26T05:24:10;10.20;42.10
67194;DHT22;54121;53.508;49.422;2022-10-26T05:26:37;10.70;40.30
67194;DHT22;54121;53.508;49.422;2022-10-26T05:29:03;10.40;40.10
67194;DHT22;54121;53.508;49.422;2022-10-26T05:31:30;10.50;40.20
67194;DHT22;54121;53.508;49.422;2022-10-26T05:33:56;10.90;38.30
67194;DHT22;54121;53.508;49.422;2022-10-26T05:36:25;10.90;38.30
67194;DHT22;54121;53.508;49.422;2022-10-26T05:38:52;10.90;37.30
67194;DHT22;54121;53.508;49.422;2022-10-26T05:41:19;10.70;37.40
67194;DHT22;54121;53.508;49.422;2022-10-26T05:43:46;11.10;37.40
67194;DHT22;54121;53.508;49.422;2022-10-26T05:46:13;11.00;36.90
67194;DHT22;54121;53.508;49.422;2022-10-26T05:48:40;11.10;37.50
67194;DHT22;54121;53.508;49.422;2022-10-26T05:51:06;10.30;39.20
67194;DHT22;54121;53.508;49.422;2022-10-26T05:53:33;10.10;40.00
67194;DHT22;54121;53.508;49.422;2022-10-26T05:56:00;10.00;41.00
67194;DHT22;54121;53.508;49.422;2022-10-26T05:58:27;10.20;41.30
67194;DHT22;54121;53.508;49.422;2022-10-26T06:01:18;10.20;42.10
67194;DHT22;54121;53.508;49.422;2022-10-26T06:06:53;10.40;40.40
67194;DHT22;54121;53.508;49.422;2022-10-26T06:09:20;10.70;39.80
67194;DHT22;54121;53.508;49.422;2022-10-26T06:11:48;10.80;40.40
67194;DHT22;54121;53.508;49.422;2022-10-26T06:14:14;10.90;40.10
67194;DHT22;54121;53.508;49.422;2022-10-26T06:30:39;11.60;35.30
67194;DHT22;54121;53.508;49.422;2022-10-26T06:33:09;11.60;35.40
67194;DHT22;54121;53.508;49.422;2022-10-26T06:38:19;12.10;34.00
67194;DHT22;54121;53.508;49.422;2022-10-26T06:40:48;11.90;34.50
67194;DHT22;54121;53.508;49.422;2022-10-26T06:43:24;12.40;33.50
67194;DHT22;54121;53.508;49.422;2022-10-26T06:51:26;12.30;32.20
67194;DHT22;54121;53.508;49.422;2022-10-26T06:54:10;12.30;32.40
67194;DHT22;54121;53.508;49.422;2022-10-26T06:56:39;12.70;31.60
67194;DHT22;54121;53.508;49.422;2022-10-26T06:59:21;12.60;31.80
67194;DHT22;54121;53.508;49.422;2022-10-26T07:01:53;12.60;30.80
67194;DHT22;54121;53.508;49.422;2022-10-26T07:04:19;12.70;30.90
67194;DHT22;54121;53.508;49.422;2022-10-26T07:06:45;12.70;30.60
67194;DHT22;54121;53.508;49.422;2022-10-26T07:09:12;12.60;30.70
67194;DHT22;54121;53.508;49.422;2022-10-26T07:11:39;13.10;31.00
67194;DHT22;54121;53.508;49.422;2022-10-26T07:14:05;13.30;29.50
67194;DHT22;54121;53.508;49.422;2022-10-26T07:16:32;13.40;29.40
67194;DHT22;54121;53.508;49.422;2022-10-26T07:18:58;13.20;29.40
67194;DHT22;54121;53.508;49.422;2022-10-26T07:21:25;13.10;30.20
67194;DHT22;54121;53.508;49.422;2022-10-26T07:23:54;13.50;29.00
67194;DHT22;54121;53.508;49.422;2022-10-26T07:26:24;13.50;28.80
67194;DHT22;54121;53.508;49.422;2022-10-26T07:28:52;13.60;29.70
67194;DHT22;54121;53.508;49.422;2022-10-26T07:31:19;13.30;30.20
67194;DHT22;54121;53.508;49.422;2022-10-26T07:33:45;13.10;29.00
67194;DHT22;54121;53.508;49.422;2022-10-26T07:36:12;13.10;29.50
67194;DHT22;54121;53.508;49.422;2022-10-26T07:38:38;12.90;29.60
67194;DHT22;54121;53.508;49.422;2022-10-26T07:41:05;13.00;30.50
67194;DHT22;54121;53.508;49.422;2022-10-26T07:43:32;12.80;29.80
67194;DHT22;54121;53.508;49.422;2022-10-26T07:45:58;12.80;30.30
67194;DHT22;54121;53.508;49.422;2022-10-26T07:48:25;12.80;29.00
67194;DHT22;54121;53.508;49.422;2022-10-26T07:50:51;12.90;27.50
67194;DHT22;54121;53.508;49.422;2022-10-26T07:53:18;12.90;27.20
67194;DHT22;54121;53.508;49.422;2022-10-26T07:55:54;12.80;27.40
67194;DHT22;54121;53.508;49.422;2022-10-26T07:58:22;13.40;26.40
67194;DHT22;54121;53.508;49.422;2022-10-26T08:00:51;14.30;25.10
67194;DHT22;54121;53.508;49.422;2022-10-26T08:03:19;14.30;25.10
67194;DHT22;54121;53.508;49.422;2022-10-26T08:05:46;14.30;25.00
67194;DHT22;54121;53.508;49.422;2022-10-26T08:08:16;14.20;24.70
67194;DHT22;54121;53.508;49.422;2022-10-26T08:10:44;13.80;25.20
67194;DHT22;54121;53.508;49.422;2022-10-26T08:13:11;13.90;25.10
67194;DHT22;54121;53.508;49.422;2022-10-26T08:15:39;13.80;25.10
67194;DHT22;54121;53.508;49.422;2022-10-26T08:18:08;13.60;25.70
67194;DHT22;54121;53.508;49.422;2022-10-26T08:20:34;13.70;25.50
67194;DHT22;54121;53.508;49.422;2022-10-26T08:23:01;13.80;25.90
67194;DHT22;54121;53.508;49.422;2022-10-26T08:25:32;13.90;25.70
67194;DHT22;54121;53.508;49.422;2022-10-26T08:28:02;14.10;25.00
67194;DHT22;54121;53.508;49.422;2022-10-26T08:30:30;14.70;24.60
67194;DHT22;54121;53.508;49.422;2022-10-26T08:33:02;15.10;23.00
67194;DHT22;54121;53.508;49.422;2022-10-26T08:35:29;15.40;22.70
67194;DHT22;54121;53.508;49.422;2022-10-26T08:37:56;15.00;23.90
67194;DHT22;54121;53.508;49.422;2022-10-26T08:40:42;15.90;22.20
67194;DHT22;54121;53.508;49.422;2022-10-26T08:43:30;16.80;21.00
67194;DHT22;54121;53.508;49.422;2022-10-26T08:46:01;16.10;21.00
67194;DHT22;54121;53.508;49.422;2022-10-26T08:48:36;15.30;22.50
67194;DHT22;54121;53.508;49.422;2022-10-26T08:53:56;16.00;21.20
67194;DHT22;54121;53.508;49.422;2022-10-26T08:56:32;16.10;20.90
67194;DHT22;54121;53.508;49.422;2022-10-26T08:59:04;15.60;22.00
67194;DHT22;54121;53.508;49.422;2022-10-26T09:01:33;15.40;22.30
67194;DHT22;54121;53.508;49.422;2022-10-26T09:04:01;15.70;21.90
67194;DHT22;54121;53.508;49.422;2022-10-26T09:06:34;15.20;23.00
67194;DHT22;54121;53.508;49.422;2022-10-26T09:12:04;14.80;23.90
67194;DHT22;54121;53.508;49.422;2022-10-26T09:14:45;14.70;24.90
67194;DHT22;54121;53.508;49.422;2022-10-26T09:20:19;14.30;25.20
67194;DHT22;54121;53.508;49.422;2022-10-26T09:22:55;14.20;25.40
67194;DHT22;54121;53.508;49.422;2022-10-26T09:25:26;14.30;25.20
67194;DHT22;54121;53.508;49.422;2022-10-26T09:28:00;14.20;24.60
67194;DHT22;54121;53.508;49.422;2022-10-26T09:30:27;13.70;25.50
67194;DHT22;54121;53.508;49.422;2022-10-26T09:32:58;13.80;25.00
67194;DHT22;54121;53.508;49.422;2022-10-26T09:35:41;13.70;25.30
67194;DHT22;54121;53.508;49.422;2022-10-26T09:46:15;14.60;23.90
67194;DHT22;54121;53.508;49.422;2022-10-26T09:49:13;14.20;23.50
67194;DHT22;54121;53.508;49.422;2022-10-26T09:51:42;14.00;24.20
67194;DHT22;54121;53.508;49.422;2022-10-26T09:54:18;13.90;23.80
67194;DHT22;54121;53.508;49.422;2022-10-26T09:56:52;13.80;24.00
67194;DHT22;54121;53.508;49.422;2022-10-26T09:59:22;13.40;24.30
67194;DHT22;54121;53.508;49.422;2022-10-26T10:01:49;13.50;24.40
67194;DHT22;54121;53.508;49.422;2022-10-26T10:06:43;13.40;25.50
67194;DHT22;54121;53.508;49.422;2022-10-26T10:09:19;13.20;25.30
67194;DHT22;54121;53.508;49.422;2022-10-26T10:11:58;13.20;25.10
67194;DHT22;54121;53.508;49.422;2022-10-26T10:14:29;13.30;25.60
67194;DHT22;54121;53.508;49.422;2022-10-26T10:17:01;13.00;26.20
67194;DHT22;54121;53.508;49.422;2022-10-26T10:19:33;12.90;26.60
67194;DHT22;54121;53.508;49.422;2022-10-26T10:22:08;12.90;26.30
67194;DHT22;54121;53.508;49.422;2022-10-26T10:24:40;13.00;26.60
67194;DHT22;54121;53.508;49.422;2022-10-26T10:32:19;12.80;26.70
67194;DHT22;54121;53.508;49.422;2022-10-26T10:34:47;12.80;27.10
67194;DHT22;54121;53.508;49.422;2022-10-26T10:40:13;13.00;27.80
67194;DHT22;54121;53.508;49.422;2022-10-26T10:42:41;13.00;26.90
67194;DHT22;54121;53.508;49.422;2022-10-26T10:45:26;12.80;26.90
67194;DHT22;54121;53.508;49.422;2022-10-26T10:48:01;12.60;27.30
67194;DHT22;54121;53.508;49.422;2022-10-26T10:50:29;13.10;27.00
67194;DHT22;54121;53.508;49.422;2022-10-26T10:53:19;12.50;26.80
67194;DHT22;54121;53.508;49.422;2022-10-26T10:58:29;12.30;27.10
67194;DHT22;54121;53.508;49.422;2022-10-26T11:00:58;12.20;27.40
67194;DHT22;54121;53.508;49.422;2022-10-26T11:06:17;12.50;27.90
67194;DHT22;54121;53.508;49.422;2022-10-26T11:11:30;12.50;27.90
67194;DHT22;54121;53.508;49.422;2022-10-26T11:16:55;12.60;27.70
67194;DHT22;54121;53.508;49.422;2022-10-26T11:19:52;12.50;27.70
67194;DHT22;54121;53.508;49.422;2022-10-26T11:22:24;12.60;27.40
67194;DHT22;54121;53.508;49.422;2022-10-26T11:25:11;12.50;27.20
67194;DHT22;54121;53.508;49.422;2022-10-26T11:27:46;12.50;26.70
67194;DHT22;54121;53.508;49.422;2022-10-26T11:30:18;12.40;26.90
67194;DHT22;54121;53.508;49.422;2022-10-26T11:33:37;12.40;26.70
67194;DHT22;54121;53.508;49.422;2022-10-26T11:35:59;12.20;26.70
67194;DHT22;54121;53.508;49.422;2022-10-26T11:38:38;12.40;27.20
67194;DHT22;54121;53.508;49.422;2022-10-26T11:43:47;12.20;27.70
67194;DHT22;54121;53.508;49.422;2022-10-26T11:46:35;12.20;27.60
67194;DHT22;54121;53.508;49.422;2022-10-26T11:52:10;11.80;27.30
67194;DHT22;54121;53.508;49.422;2022-10-26T11:54:47;12.00;26.80
67194;DHT22;54121;53.508;49.422;2022-10-26T11:57:17;11.90;26.80
67194;DHT22;54121;53.508;49.422;2022-10-26T11:59:48;12.00;27.10
67194;DHT22;54121;53.508;49.422;2022-10-26T12:02:22;11.90;27.70
67194;DHT22;54121;53.508;49.422;2022-10-26T12:05:41;12.00;27.30
67194;DHT22;54121;53.508;49.422;2022-10-26T12:07:39;12.10;27.50
67194;DHT22;54121;53.508;49.422;2022-10-26T12:10:24;12.10;27.10
67194;DHT22;54121;53.508;49.422;2022-10-26T12:15:48;12.30;27.10
67194;DHT22;54121;53.508;49.422;2022-10-26T12:18:33;12.50;26.70
67194;DHT22;54121;53.508;49.422;2022-10-26T12:21:08;12.40;26.60
67194;DHT22;54121;53.508;49.422;2022-10-26T12:23:37;12.70;26.00
67194;DHT22;54121;53.508;49.422;2022-10-26T12:29:12;12.70;26.00
67194;DHT22;54121;53.508;49.422;2022-10-26T12:31:41;12.20;26.20
67194;DHT22;54121;53.508;49.422;2022-10-26T12:34:13;12.10;26.50
67194;DHT22;54121;53.508;49.422;2022-10-26T12:39:38;11.80;26.80
67194;DHT22;54121;53.508;49.422;2022-10-26T12:52:50;11.60;27.50
67194;DHT22;54121;53.508;49.422;2022-10-26T12:55:41;11.40;27.20
67194;DHT22;54121;53.508;49.422;2022-10-26T12:58:44;11.70;27.50
67194;DHT22;54121;53.508;49.422;2022-10-26T13:04:07;11.70;26.80
67194;DHT22;54121;53.508;49.422;2022-10-26T13:06:58;11.60;27.00
67194;DHT22;54121;53.508;49.422;2022-10-26T13:09:32;11.80;26.90
67194;DHT22;54121;53.508;49.422;2022-10-26T13:12:01;11.50;27.20
67194;DHT22;54121;53.508;49.422;2022-10-26T13:14:52;11.00;27.30
67194;DHT22;54121;53.508;49.422;2022-10-26T13:17:27;10.90;28.40
67194;DHT22;54121;53.508;49.422;2022-10-26T13:20:05;11.50;27.30
67194;DHT22;54121;53.508;49.422;2022-10-26T13:22:31;11.30;27.80
67194;DHT22;54121;53.508;49.422;2022-10-26T13:25:03;10.90;27.70
67194;DHT22;54121;53.508;49.422;2022-10-26T13:32:39;10.50;28.90
67194;DHT22;54121;53.508;49.422;2022-10-26T13:35:15;10.40;29.00
67194;DHT22;54121;53.508;49.422;2022-10-26T13:37:47;10.10;29.80
67194;DHT22;54121;53.508;49.422;2022-10-26T13:40:23;10.30;29.40
67194;DHT22;54121;53.508;49.422;2022-10-26T13:42:54;10.20;29.00
67194;DHT22;54121;53.508;49.422;2022-10-26T13:45:29;10.20;29.50
67194;DHT22;54121;53.508;49.422;2022-10-26T13:48:11;10.20;29.40
67194;DHT22;54121;53.508;49.422;2022-10-26T13:50:52;9.80;30.20
67194;DHT22;54121;53.508;49.422;2022-10-26T13:53:46;9.80;30.60
67194;DHT22;54121;53.508;49.422;2022-10-26T13:56:34;9.70;30.70
67194;DHT22;54121;53.508;49.422;2022-10-26T13:59:08;9.60;30.60
67194;DHT22;54121;53.508;49.422;2022-10-26T14:01:36;9.70;30.40
67194;DHT22;54121;53.508;49.422;2022-10-26T14:04:16;9.70;30.70
67194;DHT22;54121;53.508;49.422;2022-10-26T14:06:49;9.60;30.20
67194;DHT22;54121;53.508;49.422;2022-10-26T14:09:17;9.60;31.50
67194;DHT22;54121;53.508;49.422;2022-10-26T14:11:54;9.60;31.00
67194;DHT22;54121;53.508;49.422;2022-10-26T14:14:29;9.60;31.00
67194;DHT22;54121;53.508;49.422;2022-10-26T14:16:57;9.60;31.50
67194;DHT22;54121;53.508;49.422;2022-10-26T14:19:29;9.80;30.80
67194;DHT22;54121;53.508;49.422;2022-10-26T14:21:57;9.80;30.00
67194;DHT22;54121;53.508;49.422;2022-10-26T14:24:34;9.70;30.40
67194;DHT22;54121;53.508;49.422;2022-10-26T14:27:16;10.10;30.40
67194;DHT22;54121;53.508;49.422;2022-10-26T14:29:43;10.40;29.40
67194;DHT22;54121;53.508;49.422;2022-10-26T14:32:27;10.10;30.20
67194;DHT22;54121;53.508;49.422;2022-10-26T14:34:55;10.30;28.50
67194;DHT22;54121;53.508;49.422;2022-10-26T14:37:37;10.20;28.50
67194;DHT22;54121;53.508;49.422;2022-10-26T14:40:05;10.10;28.80
67194;DHT22;54121;53.508;49.422;2022-10-26T14:42:44;9.80;29.20
67194;DHT22;54121;53.508;49.422;2022-10-26T14:45:24;9.60;29.40
67194;DHT22;54121;53.508;49.422;2022-10-26T14:47:54;9.60;29.50
67194;DHT22;54121;53.508;49.422;2022-10-26T14:50:23;9.70;29.60
67194;DHT22;54121;53.508;49.422;2022-10-26T14:53:00;9.60;30.50
67194;DHT22;54121;53.508;49.422;2022-10-26T14:55:27;9.40;31.00
67194;DHT22;54121;53.508;49.422;2022-10-26T14:58:25;9.60;30.20
67194;DHT22;54121;53.508;49.422;2022-10-26T15:03:59;9.50;31.00
67194;DHT22;54121;53.508;49.422;2022-10-26T15:08:58;9.50;31.40
67194;DHT22;54121;53.508;49.422;2022-10-26T15:11:25;9.40;31.70
67194;DHT22;54121;53.508;49.422;2022-10-26T15:13:53;9.30;31.60
67194;DHT22;54121;53.508;49.422;2022-10-26T15:16:29;9.30;31.90
67194;DHT22;54121;53.508;49.422;2022-10-26T15:19:20;9.60;31.20
67194;DHT22;54121;53.508;49.422;2022-10-26T15:21:50;9.90;30.20
67194;DHT22;54121;53.508;49.422;2022-10-26T15:26:50;9.90;30.00
67194;DHT22;54121;53.508;49.422;2022-10-26T15:29:46;10.00;29.90
67194;DHT22;54121;53.508;49.422;2022-10-26T15:35:06;10.20;28.80
67194;DHT22;54121;53.508;49.422;2022-10-26T15:37:39;10.10;28.70
67194;DHT22;54121;53.508;49.422;2022-10-26T15:40:06;10.20;29.20
67194;DHT22;54121;53.508;49.422;2022-10-26T15:42:38;9.90;29.60
67194;DHT22;54121;53.508;49.422;2022-10-26T15:47:43;9.60;30.00
67194;DHT22;54121;53.508;49.422;2022-10-26T15:50:21;9.90;29.20
67194;DHT22;54121;53.508;49.422;2022-10-26T15:52:49;10.10;29.30
67194;DHT22;54121;53.508;49.422;2022-10-26T15:55:16;10.10;28.70
67194;DHT22;54121;53.508;49.422;2022-10-26T15:57:43;9.90;29.10
67194;DHT22;54121;53.508;49.422;2022-10-26T16:00:14;9.60;29.90
67194;DHT22;54121;53.508;49.422;2022-10-26T16:02:43;9.50;29.50
67194;DHT22;54121;53.508;49.422;2022-10-26T16:05:12;9.30;29.80
67194;DHT22;54121;53.508;49.422;2022-10-26T16:07:39;9.10;30.30
67194;DHT22;54121;53.508;49.422;2022-10-26T16:10:23;9.10;31.10
67194;DHT22;54121;53.508;49.422;2022-10-26T16:12:50;9.00;31.90
67194;DHT22;54121;53.508;49.422;2022-10-26T16:15:21;9.10;31.40
67194;DHT22;54121;53.508;49.422;2022-10-26T16:17:48;9.00;31.60
67194;DHT22;54121;53.508;49.422;2022-10-26T16:20:21;8.80;32.50
67194;DHT22;54121;53.508;49.422;2022-10-26T16:22:49;8.90;32.30
67194;DHT22;54121;53.508;49.422;2022-10-26T16:25:18;8.90;31.20
67194;DHT22;54121;53.508;49.422;2022-10-26T16:27:45;9.00;30.60
67194;DHT22;54121;53.508;49.422;2022-10-26T16:30:13;9.00;30.40
67194;DHT22;54121;53.508;49.422;2022-10-26T16:32:40;8.90;31.40
67194;DHT22;54121;53.508;49.422;2022-10-26T16:35:09;8.70;31.60
67194;DHT22;54121;53.508;49.422;2022-10-26T16:37:35;8.50;32.20
67194;DHT22;54121;53.508;49.422;2022-10-26T16:40:02;8.50;32.40
67194;DHT22;54121;53.508;49.422;2022-10-26T16:42:30;8.50;32.50
67194;DHT22;54121;53.508;49.422;2022-10-26T16:44:57;8.50;32.90
67194;DHT22;54121;53.508;49.422;2022-10-26T16:47:24;8.70;32.90
67194;DHT22;54121;53.508;49.422;2022-10-26T16:49:51;8.70;32.80
67194;DHT22;54121;53.508;49.422;2022-10-26T16:52:18;8.70;32.50
67194;DHT22;54121;53.508;49.422;2022-10-26T16:54:45;8.80;32.40
67194;DHT22;54121;53.508;49.422;2022-10-26T16:57:11;8.60;32.70
67194;DHT22;54121;53.508;49.422;2022-10-26T16:59:38;8.50;33.20
67194;DHT22;54121;53.508;49.422;2022-10-26T17:02:04;8.70;32.60
67194;DHT22;54121;53.508;49.422;2022-10-26T17:04:31;9.10;31.70
67194;DHT22;54121;53.508;49.422;2022-10-26T17:06:57;8.70;32.40
67194;DHT22;54121;53.508;49.422;2022-10-26T17:09:24;9.00;32.20
67194;DHT22;54121;53.508;49.422;2022-10-26T17:11:50;9.00;31.90
67194;DHT22;54121;53.508;49.422;2022-10-26T17:14:18;9.10;31.50
67194;DHT22;54121;53.508;49.422;2022-10-26T17:16:44;9.30;31.30
67194;DHT22;54121;53.508;49.422;2022-10-26T17:19:11;9.20;31.30
67194;DHT22;54121;53.508;49.422;2022-10-26T17:21:38;9.10;31.50
67194;DHT22;54121;53.508;49.422;2022-10-26T17:24:04;9.20;31.30
67194;DHT22;54121;53.508;49.422;2022-10-26T17:26:32;9.20;31.30
67194;DHT22;54121;53.508;49.422;2022-10-26T17:28:59;9.40;30.90
67194;DHT22;54121;53.508;49.422;2022-10-26T17:31:25;9.50;30.70
67194;DHT22;54121;53.508;49.422;2022-10-26T17:33:52;9.60;29.90
67194;DHT22;54121;53.508;49.422;2022-10-26T17:36:20;9.60;29.60
67194;DHT22;54121;53.508;49.422;2022-10-26T17:38:50;9.40;29.50
67194;DHT22;54121;53.508;49.422;2022-10-26T17:41:18;9.40;29.70
67194;DHT22;54121;53.508;49.422;2022-10-26T17:43:46;9.20;29.90
67194;DHT22;54121;53.508;49.422;2022-10-26T17:46:15;9.10;30.20
67194;DHT22;54121;53.508;49.422;2022-10-26T17:48:43;9.00;30.50
67194;DHT22;54121;53.508;49.422;2022-10-26T17:51:12;8.90;31.10
67194;DHT22;54121;53.508;49.422;2022-10-26T17:53:39;8.80;31.30
67194;DHT22;54121;53.508;49.422;2022-10-26T17:56:35;8.70;31.90
67194;DHT22;54121;53.508;49.422;2022-10-26T17:59:03;8.70;32.10
67194;DHT22;54121;53.508;49.422;2022-10-26T18:01:30;8.70;32.00
67194;DHT22;54121;53.508;49.422;2022-10-26T18:03:57;8.50;32.40
67194;DHT22;54121;53.508;49.422;2022-10-26T18:06:24;8.30;33.10
67194;DHT22;54121;53.508;49.422;2022-10-26T18:08:51;8.30;33.50
67194;DHT22;54121;53.508;49.422;2022-10-26T18:11:20;8.40;33.20